Time;durP1;ratioP1;P1;durP2;ratioP2;P2;SDS_P1;SDS_P2;PMS_P1;PMS_P2;Temp;Humidity;BMP_temperature;BMP_pressure;BME280_temperature;BME280_humidity;BME280_pressure;Samples;Min_cycle;Max_cycle;Signal;HPM_P1;HPM_P2
2022/12/23 00:02:13;;;;;;;19.27;6.50;;;;;;;-142.75;100.00;76491.56;5020358;28;20025;-63
2022/12/23 00:04:39;;;;;;;19.40;5.90;;;;;;;-142.75;100.00;76499.44;5018280;28;20504;-65
2022/12/23 00:07:04;;;;;;;17.13;6.30;;;;;;;-142.75;100.00;76497.47;5019291;28;20079;-65
2022/12/23 00:09:29;;;;;;;18.70;5.50;;;;;;;-142.75;100.00;76495.50;5020093;28;20033;-66
2022/12/23 00:17:23;;;;;;;21.42;6.57;;;;;;;-142.75;100.00;76519.13;5038917;28;20060;-64
2022/12/23 00:19:48;;;;;;;20.80;7.10;;;;;;;-142.75;100.00;76507.31;5021938;28;20548;-65
2022/12/23 00:22:14;;;;;;;23.67;7.47;;;;;;;-142.75;100.00;76509.28;5035618;28;20025;-65
2022/12/23 00:24:39;;;;;;;23.17;6.93;;;;;;;-142.75;100.00;76534.84;5018442;28;20956;-65
2022/12/23 00:27:04;;;;;;;25.05;8.23;;;;;;;-142.75;100.00;76527.00;5020299;28;20029;-64
2022/12/23 00:29:30;;;;;;;25.73;6.90;;;;;;;-142.75;100.00;76530.91;5019217;28;20025;-65
2022/12/23 00:31:55;;;;;;;24.83;7.63;;;;;;;-142.75;100.00;76528.97;5018488;28;20029;-65
2022/12/23 00:34:20;;;;;;;23.85;7.88;;;;;;;-142.75;100.00;76534.84;5018435;28;20033;-64
2022/12/23 00:36:45;;;;;;;23.13;8.40;;;;;;;-142.75;100.00;76530.91;5021857;28;22247;-65
2022/12/23 00:44:39;;;;;;;19.00;6.18;;;;;;;-142.75;100.00;76532.88;5038783;28;20094;-66
2022/12/23 00:47:05;;;;;;;21.00;6.13;;;;;;;-142.75;100.00;76542.72;5038264;28;20024;-65
2022/12/23 00:49:42;;;;;;;25.35;6.63;;;;;;;-142.75;100.00;76536.84;5038655;28;20028;-65
2022/12/23 00:52:12;;;;;;;21.20;6.88;;;;;;;-142.75;100.00;76527.00;5039037;28;20025;-64
2022/12/23 00:54:37;;;;;;;20.13;6.32;;;;;;;-142.75;100.00;76540.75;5038862;28;20029;-66
2022/12/23 00:57:03;;;;;;;20.85;5.80;;;;;;;-142.75;100.00;76534.84;5037550;28;20070;-66
2022/12/23 00:59:28;;;;;;;13.98;5.53;;;;;;;-142.75;100.00;76534.84;5037732;28;20059;-65
2022/12/23 01:07:23;;;;;;;20.33;5.10;;;;;;;-142.75;100.00;76536.84;5037952;28;20430;-64
2022/12/23 01:09:48;;;;;;;15.38;5.20;;;;;;;-142.75;100.00;76528.97;5038774;28;20066;-64
2022/12/23 01:12:13;;;;;;;13.02;4.70;;;;;;;-142.75;100.00;76528.97;5020929;28;20054;-66
2022/12/23 01:14:39;;;;;;;14.10;5.15;;;;;;;-142.75;100.00;76540.75;5038661;28;20078;-65
2022/12/23 01:17:06;;;;;;;20.48;5.22;;;;;;;-142.75;100.00;76534.84;5037914;28;20083;-66
2022/12/23 01:19:31;;;;;;;9.55;4.80;;;;;;;-142.75;100.00;76532.88;5038362;28;20033;-64
2022/12/23 01:21:56;;;;;;;15.38;4.88;;;;;;;-142.75;100.00;76536.84;5020520;28;20063;-65
2022/12/23 01:24:22;;;;;;;18.85;5.50;;;;;;;-142.75;100.00;76534.84;5020064;28;20378;-64
2022/12/23 01:26:47;;;;;;;17.15;5.25;;;;;;;-142.75;100.00;76530.91;5018411;28;20068;-67
2022/12/23 01:29:12;;;;;;;12.23;4.60;;;;;;;-142.75;100.00;76527.00;5017539;28;20518;-66
2022/12/23 01:31:38;;;;;;;18.88;6.43;;;;;;;-142.75;100.00;76542.72;5019158;28;20036;-65
2022/12/23 01:34:04;;;;;;;15.15;5.55;;;;;;;-142.75;100.00;76554.53;5017502;28;20021;-62
2022/12/23 01:36:29;;;;;;;13.30;4.55;;;;;;;-142.75;100.00;76548.63;5018503;28;20033;-64
2022/12/23 01:38:55;;;;;;;14.35;5.50;;;;;;;-142.75;100.00;76546.66;5018580;28;20057;-65
2022/12/23 01:45:00;;;;;;;15.73;5.38;;;;;;;-142.75;100.00;76548.63;5019253;28;19924;-65
2022/12/23 01:47:51;;;;;;;12.77;4.97;;;;;;;-142.75;100.00;76554.53;4919480;29;20208;-65
2022/12/23 01:50:38;;;;;;;12.73;5.80;;;;;;;-142.75;100.00;76554.53;5034366;28;20371;-65
2022/12/23 01:53:12;;;;;;;;;;;;;;;-142.75;100.00;76552.56;5038826;28;20036;-64
2022/12/23 01:55:45;;;;;;;14.05;5.65;;;;;;;-142.75;100.00;76562.41;5038335;28;19927;-64
2022/12/23 01:58:15;;;;;;;17.45;6.35;;;;;;;-142.75;100.00;76574.22;5037691;28;20064;-63
2022/12/23 02:03:43;;;;;;;11.32;6.10;;;;;;;-142.75;100.00;76595.88;5039165;28;20151;-67
2022/12/23 02:11:40;;;;;;;11.55;6.40;;;;;;;-142.75;100.00;76611.63;5037284;28;20048;-66
2022/12/23 02:17:41;;;;;;;11.35;5.95;;;;;;;-142.75;100.00;76613.59;5037681;28;20494;-65
2022/12/23 02:20:44;;;;;;;13.77;6.60;;;;;;;-142.75;100.00;76607.69;5020263;28;20482;-65
2022/12/23 02:23:24;;;;;;;11.20;5.78;;;;;;;-142.75;100.00;76603.75;5038365;28;20025;-63
2022/12/23 02:26:05;;;;;;;18.58;6.50;;;;;;;-142.75;100.00;76621.47;5021332;28;20123;-64
2022/12/23 02:28:56;;;;;;;11.32;5.72;;;;;;;-142.75;100.00;76625.41;5041036;28;20024;-64
2022/12/23 02:31:37;;;;;;;13.55;5.78;;;;;;;-142.75;100.00;76613.59;5011573;28;20048;-65
2022/12/23 02:34:13;;;;;;;10.95;5.63;;;;;;;-142.75;100.00;76625.41;5041970;28;20135;-67
2022/12/23 02:36:56;;;;;;;16.95;5.90;;;;;;;-142.75;100.00;76623.44;5041531;28;20029;-64
2022/12/23 02:39:41;;;;;;;12.85;6.15;;;;;;;-142.75;100.00;76625.41;5042330;28;20494;-64
2022/12/23 02:42:32;;;;;;;15.07;5.68;;;;;;;-142.75;100.00;76637.22;5041834;28;20085;-64
2022/12/23 02:45:15;;;;;;;8.15;5.13;;;;;;;-142.75;100.00;76641.16;5041963;28;20426;-64
2022/12/23 02:47:46;;;;;;;12.50;6.18;;;;;;;-142.75;100.00;76649.03;5041362;28;20036;-63
2022/12/23 02:50:25;;;;;;;13.80;5.85;;;;;;;-142.75;100.00;76639.19;5041616;28;20036;-65
2022/12/23 02:52:53;;;;;;;13.05;5.97;;;;;;;-142.75;100.00;76651.00;5042384;28;20083;-65
2022/12/23 02:55:25;;;;;;;12.18;6.32;;;;;;;-142.75;100.00;76651.00;5041464;28;20036;-64
2022/12/23 02:57:53;;;;;;;13.60;6.07;;;;;;;-142.75;100.00;76652.97;5041221;28;20048;-65
2022/12/23 03:00:20;;;;;;;10.68;5.97;;;;;;;-142.75;100.00;76645.09;5041774;28;20025;-65
2022/12/23 03:02:46;;;;;;;12.65;6.25;;;;;;;-142.75;100.00;76635.25;5042542;28;20075;-63
2022/12/23 03:05:38;;;;;;;13.48;6.53;;;;;;;-142.75;100.00;76633.28;5041334;28;20124;-66
2022/12/23 03:08:11;;;;;;;12.43;6.10;;;;;;;-142.75;100.00;76641.16;5040225;28;20044;-62
2022/12/23 03:11:00;;;;;;;10.27;6.10;;;;;;;-142.75;100.00;76641.16;5040615;28;20485;-64
2022/12/23 03:13:31;;;;;;;12.60;6.03;;;;;;;-142.75;100.00;76641.16;5064072;22;20056;-65
2022/12/23 03:16:18;;;;;;;11.32;6.15;;;;;;;-142.75;100.00;76641.16;5040820;28;20227;-65
2022/12/23 03:19:02;;;;;;;13.32;6.90;;;;;;;-142.75;100.00;76645.09;5039969;28;20029;-66
2022/12/23 03:21:40;;;;;;;12.52;5.18;;;;;;;-142.75;100.00;76637.22;5035954;28;20025;-66
2022/12/23 03:24:39;;;;;;;7.93;4.68;;;;;;;-142.75;100.00;76645.09;5020971;28;20412;-65
2022/12/23 03:27:48;;;;;;;8.90;4.78;;;;;;;-142.75;100.00;76647.06;5002339;28;20491;-65
2022/12/23 03:30:17;;;;;;;8.48;4.72;;;;;;;-142.75;100.00;76637.22;5039599;28;20571;-66
2022/12/23 03:32:54;;;;;;;10.77;4.80;;;;;;;-142.75;100.00;76645.09;5041535;28;20070;-65
2022/12/23 03:35:24;;;;;;;12.60;5.45;;;;;;;-142.75;100.00;76637.22;5040372;28;20053;-65
2022/12/23 03:37:53;;;;;;;10.57;4.85;;;;;;;-142.75;100.00;76652.97;5039539;28;20063;-66
2022/12/23 03:40:23;;;;;;;9.15;5.53;;;;;;;-142.75;100.00;76639.19;5039809;28;20056;-66
2022/12/23 03:42:55;;;;;;;7.65;4.43;;;;;;;-142.75;100.00;76633.28;5028450;28;20036;-66
2022/12/23 03:45:28;;;;;;;10.07;5.57;;;;;;;-142.75;100.00;76637.22;5020755;28;20123;-65
2022/12/23 03:47:59;;;;;;;10.07;5.72;;;;;;;-142.75;100.00;76641.16;5020252;28;20029;-66
2022/12/23 03:50:24;;;;;;;10.93;5.63;;;;;;;-142.75;100.00;76649.03;5021035;28;20060;-66
2022/12/23 03:52:55;;;;;;;12.07;6.25;;;;;;;-142.75;100.00;76654.94;5040418;28;20131;-65
2022/12/23 03:55:30;;;;;;;10.43;5.68;;;;;;;-142.75;100.00;76654.94;5040599;28;20029;-66
2022/12/23 03:58:08;;;;;;;11.50;5.95;;;;;;;-142.75;100.00;76664.78;5039949;28;20074;-66
2022/12/23 04:00:38;;;;;;;10.43;5.53;;;;;;;-142.75;100.00;76662.81;5021861;28;20387;-65
2022/12/23 04:03:33;;;;;;;10.35;5.68;;;;;;;-142.75;100.00;76651.00;5023192;28;20052;-65
2022/12/23 04:06:01;;;;;;;10.13;6.20;;;;;;;-142.75;100.00;76672.66;5037160;28;20048;-65
2022/12/23 04:08:33;;;;;;;11.07;6.50;;;;;;;-142.75;100.00;76668.72;5039344;28;20044;-65
2022/12/23 04:10:59;;;;;;;11.18;6.10;;;;;;;-142.75;100.00;76672.66;5039666;28;20403;-65
2022/12/23 04:13:26;;;;;;;13.50;6.13;;;;;;;-142.75;100.00;76676.59;5021369;28;20044;-65
2022/12/23 04:15:51;;;;;;;11.05;6.03;;;;;;;-142.75;100.00;76676.59;5040444;28;20411;-67
2022/12/23 04:18:17;;;;;;;13.65;6.88;;;;;;;-142.75;100.00;76680.53;5021349;28;20036;-68
2022/12/23 04:20:42;;;;;;;13.90;6.53;;;;;;;-142.75;100.00;76680.53;5021529;28;20020;-67
2022/12/23 04:23:07;;;;;;;14.27;7.38;;;;;;;-142.75;100.00;76684.47;5039396;28;20044;-65
2022/12/23 04:25:33;;;;;;;11.25;6.55;;;;;;;-142.75;100.00;76686.44;5039382;28;20553;-67
2022/12/23 04:27:58;;;;;;;13.20;7.57;;;;;;;-142.75;100.00;76692.34;5038728;28;20079;-68
2022/12/23 04:30:23;;;;;;;12.73;7.13;;;;;;;-142.75;100.00;76684.47;5002101;28;20026;-67
2022/12/23 04:32:49;;;;;;;11.45;6.60;;;;;;;-142.75;100.00;76672.66;5020795;28;20487;-67
2022/12/23 04:35:14;;;;;;;14.38;7.30;;;;;;;-142.75;100.00;76666.75;5019770;28;20061;-67
2022/12/23 04:37:39;;;;;;;13.90;7.18;;;;;;;-142.75;100.00;76672.66;5018841;28;20217;-65
2022/12/23 04:40:05;;;;;;;12.27;7.60;;;;;;;-142.75;100.00;76676.59;5019595;28;20059;-65
2022/12/23 04:42:31;;;;;;;12.57;6.97;;;;;;;-142.75;100.00;76674.63;5019804;28;20018;-65
2022/12/23 04:44:56;;;;;;;18.52;7.65;;;;;;;-142.75;100.00;76672.66;5019743;28;20119;-65
2022/12/23 04:47:21;;;;;;;12.90;6.95;;;;;;;-142.75;100.00;76676.59;5018978;28;20183;-65
2022/12/23 04:49:47;;;;;;;12.45;7.57;;;;;;;-142.75;100.00;76670.69;5019851;28;20040;-67
2022/12/23 04:52:12;;;;;;;12.93;6.88;;;;;;;-142.75;100.00;76670.69;5019622;28;20632;-67
2022/12/23 04:54:38;;;;;;;11.93;7.28;;;;;;;-142.75;100.00;76674.63;5019788;28;20021;-67
2022/12/23 04:57:03;;;;;;;13.23;7.72;;;;;;;-142.75;100.00;76684.47;5018818;28;20021;-67
2022/12/23 04:59:30;;;;;;;13.07;7.55;;;;;;;-142.75;100.00;76696.28;5020224;28;20382;-67
2022/12/23 05:01:55;;;;;;;13.88;6.80;;;;;;;-142.75;100.00;76696.28;5021100;28;20469;-68
2022/12/23 05:04:20;;;;;;;13.82;7.88;;;;;;;-142.75;100.00;76692.34;5020958;28;20041;-68
2022/12/23 05:06:46;;;;;;;13.85;7.47;;;;;;;-142.75;100.00;76696.28;5020624;28;20033;-67
2022/12/23 05:09:11;;;;;;;14.98;8.38;;;;;;;-142.75;100.00;76700.22;5020716;28;20044;-67
2022/12/23 05:11:36;;;;;;;12.70;6.90;;;;;;;-142.75;100.00;76700.22;5020752;28;20550;-67
2022/12/23 05:14:02;;;;;;;16.77;8.45;;;;;;;-142.75;100.00;76710.06;5021507;28;20112;-67
2022/12/23 05:16:27;;;;;;;12.80;7.53;;;;;;;-142.75;100.00;76717.94;5030310;28;20186;-67
2022/12/23 05:18:52;;;;;;;19.27;7.85;;;;;;;-142.75;100.00;76747.47;5002231;28;20459;-67
2022/12/23 05:21:18;;;;;;;15.05;7.90;;;;;;;-142.75;100.00;76735.66;5019701;28;20029;-67
2022/12/23 05:23:43;;;;;;;15.43;8.50;;;;;;;-142.75;100.00;76741.56;5020312;28;20037;-67
2022/12/23 05:26:08;;;;;;;15.45;8.45;;;;;;;-142.75;100.00;76751.41;5002624;28;20025;-67
2022/12/23 05:28:34;;;;;;;16.73;8.52;;;;;;;-142.75;100.00;76749.44;5019361;28;20051;-67
2022/12/23 05:31:02;;;;;;;15.13;8.88;;;;;;;-142.75;100.00;76755.34;5003147;28;20091;-67
2022/12/23 05:33:28;;;;;;;17.10;8.27;;;;;;;-142.75;100.00;76759.28;5020597;28;20118;-65
2022/12/23 05:35:54;;;;;;;18.48;9.35;;;;;;;-142.75;100.00;76755.34;5021156;28;20115;-65
2022/12/23 05:38:19;;;;;;;15.32;7.90;;;;;;;-142.75;100.00;76767.16;5019802;28;20104;-65
2022/12/23 05:40:44;;;;;;;12.73;7.82;;;;;;;-142.75;100.00;76751.41;5020604;28;20068;-66
2022/12/23 05:43:09;;;;;;;15.68;8.48;;;;;;;-142.75;100.00;76751.41;5020538;28;20112;-65
2022/12/23 05:45:35;;;;;;;16.23;7.93;;;;;;;-142.75;100.00;76761.25;5020454;28;20025;-65
2022/12/23 05:48:01;;;;;;;13.25;7.60;;;;;;;-142.75;100.00;76767.16;5019700;28;20029;-65
2022/12/23 05:50:26;;;;;;;15.35;8.23;;;;;;;-142.75;100.00;76747.47;5020355;28;20056;-65
2022/12/23 05:52:54;;;;;;;16.35;8.65;;;;;;;-142.75;100.00;76747.47;5020725;28;20033;-65
2022/12/23 05:55:20;;;;;;;15.85;8.77;;;;;;;-142.75;100.00;76737.63;5002688;28;20032;-65
2022/12/23 05:57:45;;;;;;;16.08;8.48;;;;;;;-142.75;100.00;76729.75;5019909;28;20025;-65
2022/12/23 06:00:11;;;;;;;17.52;7.85;;;;;;;-142.75;100.00;76704.16;5020640;28;20371;-65
2022/12/23 06:02:36;;;;;;;15.15;8.95;;;;;;;-142.75;100.00;76700.22;5004541;28;20029;-65
2022/12/23 06:05:02;;;;;;;16.92;8.85;;;;;;;-142.75;100.00;76694.31;5024219;28;20033;-65
2022/12/23 06:07:27;;;;;;;16.13;7.80;;;;;;;-142.75;100.00;76684.47;5023385;28;20029;-65
2022/12/23 06:09:52;;;;;;;14.50;8.73;;;;;;;-142.75;100.00;76684.47;5023969;28;20060;-65
2022/12/23 06:12:17;;;;;;;15.98;8.70;;;;;;;-142.75;100.00;76690.38;5023643;28;20487;-65
2022/12/23 06:14:43;;;;;;;14.68;7.32;;;;;;;-142.75;100.00;76684.47;5023637;28;20040;-65
2022/12/23 06:17:08;;;;;;;12.40;7.45;;;;;;;-142.75;100.00;76688.41;5005459;28;20061;-65
2022/12/23 06:19:33;;;;;;;17.30;7.33;;;;;;;-142.75;100.00;76694.31;5024079;28;20569;-65
2022/12/23 06:21:59;;;;;;;12.65;7.50;;;;;;;-142.75;100.00;76712.03;5023952;28;20271;-65
2022/12/23 06:24:24;;;;;;;18.42;8.10;;;;;;;-142.75;100.00;76710.06;5023760;28;20039;-65
2022/12/23 06:26:49;;;;;;;12.43;6.85;;;;;;;-142.75;100.00;76739.59;5023335;28;20138;-65
2022/12/23 06:29:14;;;;;;;14.32;7.63;;;;;;;-142.75;100.00;76731.72;5024049;28;20021;-65
2022/12/23 06:31:40;;;;;;;15.43;7.80;;;;;;;-142.75;100.00;76727.78;5023370;28;20518;-66
2022/12/23 06:34:05;;;;;;;14.77;7.57;;;;;;;-142.75;100.00;76739.59;5023854;28;20025;-65
2022/12/23 06:36:30;;;;;;;17.25;6.82;;;;;;;-142.75;100.00;76731.72;5023419;28;20071;-65
2022/12/23 06:38:56;;;;;;;14.27;6.55;;;;;;;-142.75;100.00;76739.59;5005286;28;20391;-66
2022/12/23 06:41:21;;;;;;;12.75;6.55;;;;;;;-142.75;100.00;76755.34;5023535;28;20112;-66
2022/12/23 06:43:46;;;;;;;17.33;6.35;;;;;;;-142.75;100.00;76755.34;5023767;28;20542;-65
2022/12/23 06:46:12;;;;;;;17.08;7.57;;;;;;;-142.75;100.00;76765.19;5023400;28;20032;-65
2022/12/23 06:48:38;;;;;;;;;;;;;;;-142.75;100.00;76780.94;5023322;28;20055;-65
2022/12/23 06:51:03;;;;;;;21.55;8.07;;;;;;;-142.75;100.00;76810.44;5023223;28;19943;-65
2022/12/23 06:53:29;;;;;;;19.20;8.05;;;;;;;-142.75;100.00;76798.66;5023105;28;20029;-65
2022/12/23 06:56:04;;;;;;;19.17;8.30;;;;;;;-142.75;100.00;76786.84;5023491;28;20124;-65
2022/12/23 06:58:29;;;;;;;22.45;9.43;;;;;;;-142.75;100.00;76814.38;5023351;28;20033;-65
2022/12/23 07:00:55;;;;;;;21.48;8.95;;;;;;;-142.75;100.00;76828.16;5030359;28;20408;-65
2022/12/23 07:03:20;;;;;;;21.80;8.57;;;;;;;-142.75;100.00;76812.41;5023063;28;20048;-65
2022/12/23 07:05:48;;;;;;;19.85;8.45;;;;;;;-142.75;100.00;76818.31;5023559;28;20065;-67
2022/12/23 07:08:14;;;;;;;25.45;8.77;;;;;;;-142.75;100.00;76826.19;5022156;28;20136;-67
2022/12/23 07:10:40;;;;;;;19.10;8.73;;;;;;;-142.75;100.00;76820.28;5022992;28;20402;-67
2022/12/23 07:13:05;;;;;;;17.80;7.55;;;;;;;-142.75;100.00;76822.25;5022602;28;21074;-67
2022/12/23 07:15:30;;;;;;;24.25;8.95;;;;;;;-142.75;100.00;76822.25;5023175;28;20033;-67
2022/12/23 07:17:56;;;;;;;23.75;9.45;;;;;;;-142.75;100.00;76828.16;5022310;28;20378;-67
2022/12/23 07:20:21;;;;;;;20.42;8.30;;;;;;;-142.75;100.00;76810.44;5022666;28;20036;-68
2022/12/23 07:22:49;;;;;;;22.83;9.10;;;;;;;-142.75;100.00;76816.34;5023015;28;20030;-65
2022/12/23 07:25:14;;;;;;;23.67;10.27;;;;;;;-142.75;100.00;76818.31;5004975;28;20021;-65
2022/12/23 07:27:40;;;;;;;25.83;9.52;;;;;;;-142.75;100.00;76806.50;5022035;28;20095;-67
2022/12/23 07:30:06;;;;;;;24.92;8.43;;;;;;;-142.75;100.00;76802.56;5022638;28;20055;-65
2022/12/23 07:32:31;;;;;;;18.13;7.45;;;;;;;-142.75;100.00;76806.50;5022577;28;20140;-67
2022/12/23 07:34:56;;;;;;;19.80;9.60;;;;;;;-142.75;100.00;76802.56;5004743;28;20029;-67
2022/12/23 07:37:22;;;;;;;21.33;7.50;;;;;;;-142.75;100.00;76794.69;5021926;28;20028;-67
2022/12/23 07:39:48;;;;;;;18.30;8.02;;;;;;;-142.75;100.00;76778.97;5022874;28;20108;-67
2022/12/23 07:42:14;;;;;;;20.90;8.13;;;;;;;-142.75;100.00;76786.84;5022369;28;20051;-67
2022/12/23 07:44:39;;;;;;;20.50;8.40;;;;;;;-142.75;100.00;76778.97;5022030;28;20030;-67
2022/12/23 07:47:04;;;;;;;21.08;8.05;;;;;;;-142.75;100.00;76773.06;5021580;28;20112;-67
2022/12/23 07:49:30;;;;;;;19.42;7.68;;;;;;;-142.75;100.00;76802.56;5022246;28;20471;-67
2022/12/23 07:51:55;;;;;;;16.20;6.43;;;;;;;-142.75;100.00;76780.94;5022452;28;20113;-67
2022/12/23 07:54:21;;;;;;;14.80;6.57;;;;;;;-142.75;100.00;76775.03;5022014;28;20561;-68
2022/12/23 07:56:47;;;;;;;16.40;5.45;;;;;;;-142.75;100.00;76778.97;5021577;28;20128;-67
2022/12/23 07:59:12;;;;;;;16.20;6.53;;;;;;;-142.75;100.00;76767.16;5022004;28;20631;-67
2022/12/23 08:01:37;;;;;;;13.13;5.50;;;;;;;-142.75;100.00;76775.03;5021825;28;20083;-67
2022/12/23 08:04:03;;;;;;;13.10;5.47;;;;;;;-142.75;100.00;76790.78;5021949;28;20084;-67
2022/12/23 08:06:28;;;;;;;14.63;6.15;;;;;;;-142.75;100.00;76782.91;5021901;28;20052;-67
2022/12/23 08:08:53;;;;;;;11.63;4.97;;;;;;;-142.75;100.00;76757.31;5021714;28;20053;-68
2022/12/23 08:11:18;;;;;;;14.10;5.80;;;;;;;-142.75;100.00;76755.34;5021758;28;20026;-67
2022/12/23 08:13:44;;;;;;;13.18;6.20;;;;;;;-142.75;100.00;76759.28;5021516;28;20044;-67
2022/12/23 08:16:10;;;;;;;11.98;5.50;;;;;;;-142.75;100.00;76743.53;5021834;28;20032;-67
2022/12/23 08:18:38;;;;;;;11.05;4.68;;;;;;;-142.75;100.00;76749.44;5021014;28;20033;-67
2022/12/23 08:21:15;;;;;;;9.48;4.55;;;;;;;-142.75;100.00;76729.75;5021719;28;20064;-67
2022/12/23 08:23:42;;;;;;;11.02;4.85;;;;;;;-142.75;100.00;76759.28;5041162;28;20037;-68
2022/12/23 08:26:20;;;;;;;7.68;4.10;;;;;;;-142.75;100.00;76733.69;5041126;28;20418;-68
2022/12/23 08:28:46;;;;;;;11.20;5.00;;;;;;;-142.75;100.00;76739.59;5033927;28;20034;-68
2022/12/23 08:31:13;;;;;;;12.02;5.82;;;;;;;-142.75;100.00;76731.72;5021514;28;20144;-65
2022/12/23 08:33:40;;;;;;;13.38;6.38;;;;;;;-142.75;100.00;76725.81;5021343;28;20033;-65
2022/12/23 08:36:06;;;;;;;12.15;6.50;;;;;;;-142.75;100.00;76731.72;5004928;28;20199;-64
2022/12/23 08:38:33;;;;;;;11.40;5.68;;;;;;;-142.75;100.00;76739.59;4964454;28;20033;-65
2022/12/23 08:40:59;;;;;;;11.05;5.78;;;;;;;-142.75;100.00;76761.25;5019807;28;20479;-65
2022/12/23 08:43:24;;;;;;;14.10;6.10;;;;;;;-142.75;100.00;76749.44;5006968;28;20029;-67
2022/12/23 08:45:50;;;;;;;15.10;6.75;;;;;;;-142.75;100.00;76735.66;5022217;28;20123;-67
2022/12/23 08:48:16;;;;;;;14.63;7.10;;;;;;;-142.75;100.00;76747.47;5022384;28;20029;-67
2022/12/23 08:50:44;;;;;;;12.50;5.57;;;;;;;-142.75;100.00;76745.50;5034636;28;20091;-67
2022/12/23 08:53:10;;;;;;;10.95;5.45;;;;;;;-142.75;100.00;76747.47;5030861;28;20030;-67
2022/12/23 08:55:38;;;;;;;11.57;6.15;;;;;;;-142.75;100.00;76741.56;5035872;28;20427;-67
2022/12/23 08:58:03;;;;;;;13.38;6.32;;;;;;;-142.75;100.00;76745.50;5021015;28;20406;-67
2022/12/23 09:00:28;;;;;;;13.65;6.88;;;;;;;-142.75;100.00;76735.66;5023258;28;20028;-67
2022/12/23 09:02:54;;;;;;;14.18;7.10;;;;;;;-142.75;100.00;76739.59;5023123;28;20152;-67
2022/12/23 09:05:19;;;;;;;15.20;6.93;;;;;;;-142.75;100.00;76735.66;5028570;28;20096;-67
2022/12/23 09:07:44;;;;;;;21.38;8.55;;;;;;;-142.75;100.00;76735.66;5031429;28;20044;-67
2022/12/23 09:10:10;;;;;;;27.27;10.00;;;;;;;-142.75;100.00;76727.78;5026774;28;20838;-67
2022/12/23 09:12:35;;;;;;;22.48;9.10;;;;;;;-142.75;100.00;76723.84;5021488;28;20047;-67
2022/12/23 09:15:00;;;;;;;33.13;10.40;;;;;;;-142.75;100.00;76723.84;5082773;22;20043;-64
2022/12/23 09:17:26;;;;;;;39.90;11.27;;;;;;;-142.75;100.00;76727.78;5088879;28;20288;-63
2022/12/23 09:19:52;;;;;;;;;;;;;;;-142.75;100.00;76723.84;5081818;28;20537;-66
2022/12/23 09:22:17;;;;;;;33.55;12.20;;;;;;;-142.75;100.00;76714.00;5085278;28;19916;-64
2022/12/23 09:24:42;;;;;;;26.80;11.20;;;;;;;-142.75;100.00;76723.84;5060168;28;20032;-65
2022/12/23 09:27:07;;;;;;;32.13;10.93;;;;;;;-142.75;100.00;76735.66;5060984;28;20340;-67
2022/12/23 09:29:33;;;;;;;33.67;13.18;;;;;;;-142.75;100.00;76725.81;5065625;28;21249;-64
2022/12/23 09:31:58;;;;;;;39.42;14.38;;;;;;;-142.75;100.00;76712.03;5068601;28;20021;-66
2022/12/23 09:34:25;;;;;;;45.08;18.50;;;;;;;-142.75;100.00;76704.16;5050734;28;20043;-67
2022/12/23 09:36:51;;;;;;;28.60;11.52;;;;;;;-142.75;100.00;76694.31;5066555;28;20072;-66
2022/12/23 09:39:16;;;;;;;36.50;12.27;;;;;;;-142.75;100.00;76692.34;5056425;28;20020;-68
2022/12/23 09:41:53;;;;;;;31.67;12.98;;;;;;;-142.75;100.00;76684.47;5073423;28;20020;-64
2022/12/23 09:44:30;;;;;;;35.53;12.20;;;;;;;-142.75;100.00;76692.34;5076128;28;20438;-65
2022/12/23 09:47:00;;;;;;;33.30;13.50;;;;;;;-142.75;100.00;76684.47;5069167;28;20194;-66
2022/12/23 09:49:26;;;;;;;33.97;12.48;;;;;;;-142.75;100.00;76688.41;5058874;28;20090;-66
2022/12/23 09:51:56;;;;;;;37.95;13.73;;;;;;;-142.75;100.00;76684.47;5076571;28;20029;-66
2022/12/23 09:54:24;;;;;;;44.17;14.15;;;;;;;-142.75;100.00;76694.31;5073595;28;20032;-62
2022/12/23 09:57:21;;;;;;;33.22;12.95;;;;;;;-142.75;100.00;76692.34;5062318;28;20068;-66
2022/12/23 09:59:52;;;;;;;41.70;15.27;;;;;;;-142.75;100.00;76700.22;5084386;28;20486;-64
2022/12/23 10:02:29;;;;;;;47.88;15.18;;;;;;;-142.75;100.00;76688.41;5084503;28;20749;-65
2022/12/23 10:04:54;;;;;;;;;;;;;;;-142.75;100.00;76676.59;5085135;28;20032;-63
2022/12/23 10:07:30;;;;;;;55.72;15.77;;;;;;;-142.75;100.00;76684.47;5078617;28;19924;-64
2022/12/23 10:10:01;;;;;;;48.42;15.60;;;;;;;-142.75;100.00;76688.41;5074716;28;20463;-64
2022/12/23 10:12:36;;;;;;;45.22;15.40;;;;;;;-142.75;100.00;76700.22;5076063;28;20025;-66
2022/12/23 10:15:06;;;;;;;39.40;16.13;;;;;;;-142.75;100.00;76700.22;5068622;28;20028;-66
2022/12/23 10:17:40;;;;;;;35.90;14.30;;;;;;;-142.75;100.00;76688.41;5066691;28;20025;-63
2022/12/23 10:20:13;;;;;;;34.92;14.52;;;;;;;-142.75;100.00;76692.34;5075232;28;20185;-62
2022/12/23 10:22:43;;;;;;;32.60;14.82;;;;;;;-142.75;100.00;76662.81;5065318;28;20136;-68
2022/12/23 10:25:34;;;;;;;34.00;14.63;;;;;;;-142.75;100.00;76656.91;5083748;28;20024;-65
2022/12/23 10:27:59;;;;;;;37.78;13.70;;;;;;;-142.75;100.00;76652.97;5082933;28;20035;-66
2022/12/23 10:30:28;;;;;;;35.67;15.98;;;;;;;-142.75;100.00;76647.06;5082510;28;20028;-64
2022/12/23 10:33:03;;;;;;;36.10;14.82;;;;;;;-142.75;100.00;76660.84;5082957;28;20027;-64
2022/12/23 10:35:49;;;;;;;50.80;22.75;;;;;;;-142.75;100.00;76641.16;5082798;28;20063;-66
2022/12/23 10:38:39;;;;;;;29.23;14.13;;;;;;;-142.75;100.00;76629.34;5063563;28;20032;-66
2022/12/23 10:41:10;;;;;;;34.80;14.60;;;;;;;-142.75;100.00;76635.25;5064749;28;20031;-68
2022/12/23 10:44:00;;;;;;;31.05;13.70;;;;;;;-142.75;100.00;76625.41;5082488;28;20543;-67
2022/12/23 10:47:01;;;;;;;31.65;14.40;;;;;;;-142.75;100.00;76621.47;5062893;28;20105;-64
2022/12/23 10:49:57;;;;;;;31.58;15.90;;;;;;;-142.75;100.00;76613.59;5072397;28;20039;-66
2022/12/23 10:52:27;;;;;;;32.00;14.73;;;;;;;-142.75;100.00;76619.50;5068229;28;20047;-68
2022/12/23 10:54:52;;;;;;;33.22;14.52;;;;;;;-142.75;100.00;76625.41;5061865;28;20058;-67
2022/12/23 10:57:19;;;;;;;31.98;14.32;;;;;;;-142.75;100.00;76652.97;5062627;28;20032;-67
2022/12/23 10:59:44;;;;;;;36.75;14.85;;;;;;;-142.75;100.00;76656.91;5063367;28;20147;-64
2022/12/23 11:02:25;;;;;;;36.47;14.70;;;;;;;-142.75;100.00;76651.00;5045021;28;20382;-67
2022/12/23 11:04:51;;;;;;;30.02;15.23;;;;;;;-142.75;100.00;76641.16;5061161;28;20036;-66
2022/12/23 11:07:28;;;;;;;37.47;16.05;;;;;;;-142.75;100.00;76629.34;5082401;28;20473;-67
2022/12/23 11:09:59;;;;;;;40.42;16.63;;;;;;;-142.75;100.00;76617.53;5083543;28;20019;-66
2022/12/23 11:12:38;;;;;;;35.03;16.00;;;;;;;-142.75;100.00;76601.78;5083119;28;20032;-67
2022/12/23 11:15:04;;;;;;;34.25;16.35;;;;;;;-142.75;100.00;76597.84;5070465;28;20112;-67
2022/12/23 11:17:34;;;;;;;37.88;16.58;;;;;;;-142.75;100.00;76582.09;5062454;28;20032;-68
2022/12/23 11:20:16;;;;;;;34.17;16.13;;;;;;;-142.75;100.00;76578.16;5069405;28;20060;-67
2022/12/23 11:22:48;;;;;;;39.60;17.65;;;;;;;-142.75;100.00;76578.16;5070992;28;20127;-69
2022/12/23 11:25:37;;;;;;;36.60;18.98;;;;;;;-142.75;100.00;76578.16;5078919;28;20548;-66
2022/12/23 11:28:09;;;;;;;36.50;18.27;;;;;;;-142.75;100.00;76572.25;5081879;28;20024;-67
2022/12/23 11:30:46;;;;;;;41.63;18.75;;;;;;;-142.75;100.00;76576.19;5072863;28;20055;-66
2022/12/23 11:33:37;;;;;;;46.28;18.42;;;;;;;-142.75;100.00;76562.41;5073005;28;20110;-64
2022/12/23 11:36:11;;;;;;;49.70;19.33;;;;;;;-142.75;100.00;76558.47;5061898;28;20117;-64
2022/12/23 11:38:48;;;;;;;34.97;17.83;;;;;;;-142.75;100.00;76562.41;5054982;28;21458;-64
2022/12/23 11:41:18;;;;;;;;;;;;;;;-142.75;100.00;76556.50;5068147;28;20021;-63
2022/12/23 11:43:54;;;;;;;34.53;15.20;;;;;;;-142.75;100.00;76558.47;5062044;28;20366;-63
2022/12/23 11:46:26;;;;;;;38.35;18.42;;;;;;;-142.75;100.00;76552.56;5055434;28;20028;-65